createdAt,value
2022-08-02T00:00:18.226Z,18.10
2022-08-02T00:02:47.371Z,18.00
2022-08-02T00:05:15.757Z,18.00
2022-08-02T00:07:43.722Z,18.00
2022-08-02T00:10:13.004Z,18.00
2022-08-02T00:12:41.098Z,17.90
2022-08-02T00:15:10.839Z,17.90
2022-08-02T00:17:47.295Z,17.80
2022-08-02T00:20:17.066Z,17.80
2022-08-02T00:22:44.971Z,17.70
2022-08-02T00:25:12.977Z,17.70
2022-08-02T00:27:40.957Z,17.70
2022-08-02T00:30:09.964Z,17.60
2022-08-02T00:32:37.943Z,17.60
2022-08-02T00:35:08.588Z,17.60
2022-08-02T00:37:40.123Z,17.60
2022-08-02T00:40:09.416Z,17.60
2022-08-02T00:42:37.476Z,17.50
2022-08-02T00:45:06.049Z,17.50
2022-08-02T00:47:34.127Z,17.50
2022-08-02T00:50:02.848Z,17.50
2022-08-02T00:52:32.283Z,17.40
2022-08-02T00:55:00.186Z,17.40
2022-08-02T00:57:28.117Z,17.50
2022-08-02T00:59:56.040Z,17.50
2022-08-02T01:02:24.017Z,17.50
2022-08-02T01:04:51.904Z,17.40
2022-08-02T01:07:19.849Z,17.50
2022-08-02T01:09:49.157Z,17.50
2022-08-02T01:12:17.527Z,17.50
2022-08-02T01:14:49.030Z,17.50
2022-08-02T01:17:23.876Z,17.40
2022-08-02T01:19:58.543Z,17.40
2022-08-02T01:23:06.605Z,17.40
2022-08-02T01:26:03.161Z,17.40
2022-08-02T01:28:38.848Z,17.50
2022-08-02T01:31:15.114Z,17.40
2022-08-02T01:33:46.743Z,17.50
2022-08-02T01:36:18.488Z,17.40
2022-08-02T01:38:49.257Z,17.40
2022-08-02T01:41:22.308Z,17.40
2022-08-02T01:43:56.481Z,17.40
2022-08-02T01:46:25.818Z,17.40
2022-08-02T01:48:55.769Z,17.40
2022-08-02T01:51:39.788Z,17.40
2022-08-02T01:54:09.531Z,17.40
2022-08-02T01:56:37.878Z,17.30
2022-08-02T01:59:10.327Z,17.30
2022-08-02T02:01:40.504Z,17.30
2022-08-02T02:04:10.003Z,17.30
2022-08-02T02:06:38.883Z,17.30
2022-08-02T02:09:07.606Z,17.20
2022-08-02T02:12:11.423Z,17.20
2022-08-02T02:14:25.851Z,17.20
2022-08-02T02:16:54.896Z,17.20
2022-08-02T02:19:24.949Z,17.20
2022-08-02T02:21:53.100Z,17.20
2022-08-02T02:24:22.594Z,17.10
2022-08-02T02:26:52.784Z,17.10
2022-08-02T02:29:22.909Z,17.00
2022-08-02T02:31:55.900Z,17.00
2022-08-02T02:34:28.593Z,16.90
2022-08-02T02:37:00.421Z,16.80
2022-08-02T02:39:29.561Z,16.80
2022-08-02T02:42:03.047Z,16.80
2022-08-02T02:44:33.061Z,16.70
2022-08-02T02:47:04.072Z,16.70
2022-08-02T02:49:34.173Z,16.70
2022-08-02T02:52:03.547Z,16.60
2022-08-02T02:54:35.200Z,16.60
2022-08-02T02:57:06.355Z,16.60
2022-08-02T02:59:35.266Z,16.60
2022-08-02T03:02:05.763Z,16.60
2022-08-02T03:04:55.809Z,16.50
2022-08-02T03:07:23.008Z,16.40
2022-08-02T03:09:54.129Z,16.40
2022-08-02T03:12:30.320Z,16.40
2022-08-02T03:15:00.251Z,16.40
2022-08-02T03:17:38.952Z,16.40
2022-08-02T03:20:10.835Z,16.40
2022-08-02T03:22:38.815Z,16.30
2022-08-02T03:25:08.073Z,16.30
2022-08-02T03:27:36.054Z,16.20
2022-08-02T03:30:04.906Z,16.20
2022-08-02T03:32:34.501Z,16.20
2022-08-02T03:35:03.436Z,16.10
2022-08-02T03:37:32.646Z,16.10
2022-08-02T03:40:01.936Z,16.10
2022-08-02T03:42:30.973Z,16.10
2022-08-02T03:45:04.894Z,16.10
2022-08-02T03:47:38.462Z,16.00
2022-08-02T03:50:08.658Z,16.00
2022-08-02T03:52:37.822Z,16.00
2022-08-02T03:55:06.595Z,16.00
2022-08-02T03:57:34.853Z,16.00
2022-08-02T04:00:02.882Z,15.90
2022-08-02T04:02:30.886Z,15.90
2022-08-02T04:05:00.148Z,15.90
2022-08-02T04:08:34.489Z,15.90
2022-08-02T04:10:16.463Z,15.90
2022-08-02T04:12:44.698Z,15.90
2022-08-02T04:15:14.936Z,15.80
2022-08-02T04:17:49.150Z,15.90
2022-08-02T04:20:21.113Z,15.80
2022-08-02T04:22:52.592Z,15.80
2022-08-02T04:25:34.313Z,15.90
2022-08-02T04:28:17.214Z,15.90
2022-08-02T04:30:47.551Z,15.90
2022-08-02T04:33:16.481Z,15.90
2022-08-02T04:35:46.654Z,16.00
2022-08-02T04:38:15.787Z,16.00
2022-08-02T04:40:52.330Z,16.00
2022-08-02T04:43:20.554Z,16.10
2022-08-02T04:45:50.578Z,16.10
2022-08-02T04:48:18.612Z,16.20
2022-08-02T04:50:47.891Z,16.20
2022-08-02T04:53:15.813Z,16.20
2022-08-02T04:55:43.960Z,16.20
2022-08-02T04:58:38.301Z,16.20
2022-08-02T05:00:59.911Z,16.20
2022-08-02T05:03:28.027Z,16.30
2022-08-02T05:05:57.396Z,16.30
2022-08-02T05:08:25.360Z,16.40
2022-08-02T05:10:53.653Z,16.40
2022-08-02T05:13:21.647Z,16.40
2022-08-02T05:15:50.352Z,16.50
2022-08-02T05:18:18.578Z,16.60
2022-08-02T05:20:46.617Z,16.70
2022-08-02T05:23:15.890Z,16.80
2022-08-02T05:25:43.836Z,16.90
2022-08-02T05:28:12.037Z,16.90
2022-08-02T05:30:40.260Z,17.00
2022-08-02T05:33:08.694Z,17.10
2022-08-02T05:35:37.111Z,17.10
2022-08-02T05:38:05.218Z,17.20
2022-08-02T05:40:54.680Z,17.30
2022-08-02T05:43:24.098Z,17.40
2022-08-02T05:45:53.508Z,17.50
2022-08-02T05:48:23.729Z,17.60
2022-08-02T05:50:56.972Z,17.70
2022-08-02T05:53:31.667Z,17.70
2022-08-02T05:56:19.196Z,17.70
2022-08-02T05:58:54.071Z,17.80
2022-08-02T06:01:29.284Z,17.90
2022-08-02T06:03:59.021Z,17.90
2022-08-02T06:06:27.878Z,18.00
2022-08-02T06:09:00.542Z,18.00
2022-08-02T06:11:37.612Z,18.00
2022-08-02T06:14:07.280Z,18.00
2022-08-02T06:16:36.829Z,18.00
2022-08-02T06:19:12.669Z,17.90
2022-08-02T06:22:32.786Z,17.90
2022-08-02T06:24:31.654Z,18.00
2022-08-02T06:27:03.153Z,18.00
2022-08-02T06:29:38.344Z,18.10
2022-08-02T06:32:08.753Z,18.20
2022-08-02T06:34:38.304Z,18.30
2022-08-02T06:37:15.001Z,18.40
2022-08-02T06:39:47.499Z,18.50
2022-08-02T06:42:26.830Z,18.60
2022-08-02T06:44:57.687Z,18.70
2022-08-02T06:47:26.695Z,18.80
2022-08-02T06:49:56.534Z,18.90
2022-08-02T06:52:28.908Z,19.00
2022-08-02T06:54:59.403Z,19.10
2022-08-02T06:57:29.165Z,19.20
2022-08-02T06:59:58.198Z,19.30
2022-08-02T07:02:26.420Z,19.40
2022-08-02T07:04:55.360Z,19.50
2022-08-02T07:07:23.361Z,19.60
2022-08-02T07:09:56.291Z,19.80
2022-08-02T07:12:33.107Z,19.90
2022-08-02T07:15:03.227Z,20.10
2022-08-02T07:17:31.443Z,20.10
2022-08-02T07:20:00.429Z,20.20
2022-08-02T07:22:29.286Z,20.30
2022-08-02T07:24:58.689Z,20.40
2022-08-02T07:27:26.673Z,20.60
2022-08-02T07:29:56.153Z,20.70
2022-08-02T07:32:26.864Z,20.90
2022-08-02T07:34:55.595Z,21.00
2022-08-02T07:37:53.759Z,21.10
2022-08-02T07:40:19.594Z,21.30
2022-08-02T07:42:49.684Z,21.50
2022-08-02T07:45:19.442Z,21.70
2022-08-02T07:47:47.836Z,21.80
2022-08-02T07:50:17.325Z,22.00
2022-08-02T07:52:46.192Z,22.20
2022-08-02T07:55:15.904Z,22.30
2022-08-02T07:57:46.689Z,22.50
2022-08-02T08:00:17.187Z,22.70
2022-08-02T08:02:47.347Z,22.80
2022-08-02T08:05:15.892Z,22.90
2022-08-02T08:07:44.250Z,23.10
2022-08-02T08:10:12.410Z,23.20
2022-08-02T08:12:40.399Z,23.40
2022-08-02T08:15:09.265Z,23.50
2022-08-02T08:17:38.226Z,23.60
2022-08-02T08:20:10.087Z,23.70
2022-08-02T08:22:40.830Z,23.80
2022-08-02T08:25:09.699Z,24.00
2022-08-02T08:27:37.631Z,24.10
2022-08-02T08:30:06.189Z,24.30
2022-08-02T08:32:34.152Z,24.50
2022-08-02T08:35:03.595Z,24.70
2022-08-02T08:37:36.230Z,24.80
2022-08-02T08:40:06.181Z,25.00
2022-08-02T08:42:35.065Z,25.20
2022-08-02T08:45:03.446Z,25.30
2022-08-02T08:47:36.425Z,25.50
2022-08-02T08:50:06.938Z,25.70
2022-08-02T08:52:50.903Z,25.80
2022-08-02T08:55:19.549Z,25.90
2022-08-02T08:57:47.795Z,26.10
2022-08-02T09:00:17.019Z,26.30
2022-08-02T09:02:45.411Z,26.50
2022-08-02T09:05:16.599Z,26.80
2022-08-02T09:07:48.891Z,27.50
2022-08-02T09:10:36.566Z,28.10
2022-08-02T09:13:37.737Z,28.90
2022-08-02T09:16:00.865Z,29.60
2022-08-02T09:18:43.665Z,30.60
2022-08-02T09:21:12.561Z,31.70
2022-08-02T09:23:43.688Z,32.60
2022-08-02T09:26:15.078Z,34.30
2022-08-02T09:28:44.240Z,36.30
2022-08-02T09:31:14.731Z,37.60
2022-08-02T09:33:44.165Z,39.00
2022-08-02T09:36:13.427Z,39.00
2022-08-02T09:38:53.866Z,39.80
2022-08-02T09:41:23.695Z,40.80
2022-08-02T09:44:04.482Z,41.00
2022-08-02T09:46:37.563Z,41.00
2022-08-02T09:49:08.198Z,40.60
2022-08-02T09:51:38.063Z,40.70
2022-08-02T09:54:09.462Z,40.50
2022-08-02T09:56:46.395Z,39.10
2022-08-02T09:59:15.759Z,39.70
2022-08-02T10:01:51.606Z,41.20
2022-08-02T10:04:31.957Z,42.50
2022-08-02T10:07:04.305Z,43.90
2022-08-02T10:09:34.513Z,45.10
2022-08-02T10:12:03.440Z,46.10
2022-08-02T10:14:36.754Z,46.20
2022-08-02T10:17:05.982Z,45.70
2022-08-02T10:20:00.824Z,44.60
2022-08-02T10:22:23.910Z,43.30
2022-08-02T10:24:53.887Z,43.90
2022-08-02T10:27:22.502Z,43.70
2022-08-02T10:29:54.148Z,43.80
2022-08-02T10:32:27.618Z,43.70
2022-08-02T10:35:19.170Z,43.50
2022-08-02T10:37:50.815Z,42.80
2022-08-02T10:40:26.673Z,42.80
2022-08-02T10:42:59.374Z,42.90
2022-08-02T10:45:29.772Z,42.50
2022-08-02T10:48:03.465Z,42.60
2022-08-02T10:50:53.805Z,42.30
2022-08-02T10:53:30.204Z,42.70
2022-08-02T10:56:01.270Z,43.70
2022-08-02T10:58:32.370Z,44.50
2022-08-02T11:01:05.549Z,44.90
2022-08-02T11:03:40.695Z,45.50
2022-08-02T11:06:25.849Z,44.80
2022-08-02T11:09:32.023Z,43.90
2022-08-02T11:12:07.042Z,43.00
2022-08-02T11:14:37.073Z,42.20
2022-08-02T11:17:16.273Z,41.80
2022-08-02T11:20:17.915Z,41.40
2022-08-02T11:22:47.269Z,40.90
2022-08-02T11:26:00.966Z,40.20
2022-08-02T11:28:25.649Z,39.50
2022-08-02T11:31:01.289Z,38.80
2022-08-02T11:33:34.584Z,38.30
2022-08-02T11:36:07.186Z,37.60
2022-08-02T11:38:35.609Z,37.00
2022-08-02T11:41:06.146Z,36.50
2022-08-02T11:43:39.760Z,36.20
2022-08-02T11:46:14.792Z,35.90
2022-08-02T11:48:44.181Z,35.60
2022-08-02T11:51:13.508Z,35.10
2022-08-02T11:53:50.155Z,34.40
2022-08-02T11:56:24.955Z,33.80
2022-08-02T11:59:08.433Z,33.40
2022-08-02T12:01:45.946Z,33.20
2022-08-02T12:04:19.344Z,33.30
2022-08-02T12:06:58.608Z,33.40
2022-08-02T12:09:27.755Z,33.50
2022-08-02T12:11:56.899Z,33.30
2022-08-02T12:14:28.443Z,33.30
2022-08-02T12:17:14.102Z,33.30
2022-08-02T12:19:43.484Z,33.30
2022-08-02T12:22:15.186Z,33.30
2022-08-02T12:24:46.544Z,33.20
2022-08-02T12:27:33.805Z,32.80
2022-08-02T12:30:06.788Z,32.60
2022-08-02T12:32:35.002Z,32.50
2022-08-02T12:35:05.832Z,32.60
2022-08-02T12:37:33.913Z,32.60
2022-08-02T12:40:20.829Z,32.70
2022-08-02T12:42:56.471Z,32.60
2022-08-02T12:45:26.854Z,32.50
2022-08-02T12:48:05.078Z,32.30
2022-08-02T12:50:37.231Z,32.20
2022-08-02T12:53:07.581Z,32.20
2022-08-02T12:55:59.246Z,32.30
2022-08-02T12:58:26.475Z,32.60
2022-08-02T13:00:57.845Z,32.70
2022-08-02T13:04:09.607Z,32.90
2022-08-02T13:06:39.820Z,33.10
2022-08-02T13:09:03.156Z,33.30
2022-08-02T13:11:31.084Z,33.40
2022-08-02T13:13:59.053Z,33.20
2022-08-02T13:16:30.524Z,33.10
2022-08-02T13:19:00.066Z,33.30
2022-08-02T13:21:41.267Z,33.40
2022-08-02T13:24:32.983Z,33.50
2022-08-02T13:27:08.576Z,33.70
2022-08-02T13:29:37.157Z,33.70
2022-08-02T13:32:06.969Z,33.70
2022-08-02T13:34:35.093Z,33.80
2022-08-02T13:37:04.004Z,33.90
2022-08-02T13:39:31.955Z,33.80
2022-08-02T13:41:59.949Z,33.70
2022-08-02T13:44:28.021Z,33.90
2022-08-02T13:46:56.164Z,33.90
2022-08-02T13:49:50.148Z,33.90
2022-08-02T13:52:14.649Z,33.90
2022-08-02T13:54:42.917Z,33.80
2022-08-02T13:57:10.881Z,33.80
2022-08-02T13:59:56.387Z,33.90
2022-08-02T14:02:28.083Z,33.70
2022-08-02T14:04:57.773Z,33.50
2022-08-02T14:07:25.722Z,33.60
2022-08-02T14:09:53.814Z,33.70
2022-08-02T14:12:21.903Z,33.90
2022-08-02T14:14:49.871Z,34.20
2022-08-02T14:17:18.817Z,34.40
2022-08-02T14:19:46.974Z,34.60
2022-08-02T14:22:16.291Z,34.80
2022-08-02T14:24:44.338Z,34.80
2022-08-02T14:27:12.474Z,34.70
2022-08-02T14:29:40.664Z,34.40
2022-08-02T14:32:09.592Z,34.50
2022-08-02T14:34:37.717Z,34.50
2022-08-02T14:37:05.671Z,34.60
2022-08-02T14:39:43.449Z,34.80
2022-08-02T14:42:23.004Z,35.10
2022-08-02T14:44:50.965Z,35.10
2022-08-02T14:47:19.007Z,35.10
2022-08-02T14:49:50.110Z,35.00
2022-08-02T14:52:19.335Z,34.80
2022-08-02T14:54:48.840Z,34.70
2022-08-02T14:57:17.949Z,34.90
2022-08-02T14:59:47.145Z,35.00
2022-08-02T15:02:15.670Z,34.80
2022-08-02T15:04:44.174Z,34.60
2022-08-02T15:07:13.802Z,34.30
2022-08-02T15:09:42.139Z,33.90
2022-08-02T15:12:13.109Z,33.80
2022-08-02T15:14:41.725Z,33.80
2022-08-02T15:17:10.727Z,33.80
2022-08-02T15:19:57.874Z,33.90
2022-08-02T15:22:29.128Z,33.90
2022-08-02T15:24:57.142Z,34.00
2022-08-02T15:27:27.717Z,34.20
2022-08-02T15:29:59.965Z,34.30
2022-08-02T15:32:28.562Z,34.30
2022-08-02T15:34:56.506Z,34.20
2022-08-02T15:37:24.462Z,34.10
2022-08-02T15:39:53.489Z,34.10
2022-08-02T15:42:21.529Z,34.10
2022-08-02T15:45:00.867Z,34.10
2022-08-02T15:47:28.952Z,34.10
2022-08-02T15:49:58.401Z,34.10
2022-08-02T15:52:26.696Z,34.10
2022-08-02T15:54:54.698Z,34.10
2022-08-02T15:57:22.655Z,34.00
2022-08-02T15:59:52.955Z,33.90
2022-08-02T16:02:22.681Z,33.90
2022-08-02T16:04:50.794Z,33.70
2022-08-02T16:07:20.821Z,33.80
2022-08-02T16:09:48.746Z,33.80
2022-08-02T16:12:17.353Z,33.60
2022-08-02T16:14:45.536Z,33.40
2022-08-02T16:17:13.506Z,33.10
2022-08-02T16:19:49.212Z,33.00
2022-08-02T16:22:17.888Z,32.80
2022-08-02T16:24:45.924Z,32.60
2022-08-02T16:27:14.194Z,32.40
2022-08-02T16:29:42.387Z,32.30
2022-08-02T16:32:11.473Z,32.10
2022-08-02T16:35:06.825Z,32.00
2022-08-02T16:37:52.003Z,32.00
2022-08-02T16:40:21.439Z,32.00
2022-08-02T16:45:37.947Z,32.10
2022-08-02T16:48:07.696Z,32.10
2022-08-02T16:50:37.684Z,32.10
2022-08-02T16:53:07.719Z,32.00
2022-08-02T16:55:36.475Z,32.00
2022-08-02T16:58:05.076Z,32.00
2022-08-02T17:00:37.916Z,32.00
2022-08-02T17:03:13.151Z,32.00
2022-08-02T17:05:56.736Z,31.90
2022-08-02T17:11:07.058Z,31.80
2022-08-02T17:13:37.980Z,31.70
2022-08-02T17:16:26.074Z,31.70
2022-08-02T17:18:55.251Z,31.70
2022-08-02T17:21:23.601Z,31.50
2022-08-02T17:24:05.441Z,31.40
2022-08-02T17:26:37.638Z,31.30
2022-08-02T17:29:15.477Z,31.30
2022-08-02T17:32:04.896Z,31.20
2022-08-02T17:34:33.471Z,31.00
2022-08-02T17:37:01.511Z,31.00
2022-08-02T17:39:34.433Z,30.90
2022-08-02T17:42:19.838Z,30.90
2022-08-02T17:44:49.144Z,30.90
2022-08-02T17:47:17.833Z,30.90
2022-08-02T17:49:47.916Z,30.80
2022-08-02T17:52:51.107Z,30.80
2022-08-02T17:55:05.704Z,30.80
2022-08-02T17:57:58.321Z,30.70
2022-08-02T18:00:26.507Z,30.70
2022-08-02T18:02:55.394Z,30.60
2022-08-02T18:05:40.332Z,30.60
2022-08-02T18:08:13.878Z,30.40
2022-08-02T18:10:42.252Z,30.40
2022-08-02T18:13:13.471Z,30.30
2022-08-02T18:15:45.453Z,30.10
2022-08-02T18:18:14.381Z,30.10
2022-08-02T18:20:42.994Z,30.00
2022-08-02T18:23:13.803Z,29.90
2022-08-02T18:25:46.774Z,29.90
2022-08-02T18:28:17.854Z,29.80
2022-08-02T18:30:45.825Z,29.70
2022-08-02T18:36:01.706Z,29.50
2022-08-02T18:38:31.366Z,29.40
2022-08-02T18:41:02.725Z,29.30
2022-08-02T18:43:34.592Z,29.20
2022-08-02T18:46:16.041Z,29.10
2022-08-02T18:48:55.450Z,29.00
2022-08-02T18:51:24.016Z,28.90
2022-08-02T18:53:53.870Z,28.80
2022-08-02T18:56:24.577Z,28.80
2022-08-02T18:58:55.355Z,28.70
2022-08-02T19:01:33.807Z,28.60
2022-08-02T19:04:04.146Z,28.40
2022-08-02T19:06:32.605Z,28.30
2022-08-02T19:09:11.486Z,28.20
2022-08-02T19:14:31.554Z,28.00
2022-08-02T19:17:11.627Z,27.90
2022-08-02T19:19:44.469Z,27.80
2022-08-02T19:22:18.017Z,27.70
2022-08-02T19:24:51.554Z,27.60
2022-08-02T19:27:25.952Z,27.50
2022-08-02T19:30:02.225Z,27.40
2022-08-02T19:32:40.639Z,27.30
2022-08-02T19:35:29.224Z,27.20
2022-08-02T19:38:08.813Z,27.10
2022-08-02T19:40:38.631Z,26.90
2022-08-02T19:44:26.590Z,26.80
2022-08-02T19:45:57.388Z,26.70
2022-08-02T19:48:27.142Z,26.60
2022-08-02T19:51:00.557Z,26.50
2022-08-02T19:53:47.680Z,26.40
2022-08-02T19:56:24.700Z,26.30
2022-08-02T19:58:53.884Z,26.20
2022-08-02T20:01:37.043Z,26.00
2022-08-02T20:04:13.080Z,25.90
2022-08-02T20:06:45.226Z,25.80
2022-08-02T20:09:16.463Z,25.80
2022-08-02T20:11:45.212Z,25.70
2022-08-02T20:14:13.554Z,25.60
2022-08-02T20:16:42.884Z,25.50
2022-08-02T20:19:14.113Z,25.40
2022-08-02T20:21:52.892Z,25.30
2022-08-02T20:24:26.522Z,25.20
2022-08-02T20:26:54.830Z,25.10
2022-08-02T20:29:43.156Z,25.00
2022-08-02T20:32:14.602Z,25.00
2022-08-02T20:34:42.866Z,24.90
2022-08-02T20:37:59.722Z,24.80
2022-08-02T20:40:05.678Z,24.80
2022-08-02T20:42:34.191Z,24.70
2022-08-02T20:45:02.989Z,24.70
2022-08-02T20:47:39.291Z,24.60
2022-08-02T20:50:30.611Z,24.60
2022-08-02T20:53:00.399Z,24.50
2022-08-02T20:55:30.787Z,24.50
2022-08-02T20:58:01.691Z,24.50
2022-08-02T21:00:31.512Z,24.40
2022-08-02T21:03:02.478Z,24.40
2022-08-02T21:05:54.400Z,24.30
2022-08-02T21:08:21.425Z,24.30
2022-08-02T21:10:52.320Z,24.20
2022-08-02T21:13:24.068Z,24.10
2022-08-02T21:15:55.125Z,24.10
2022-08-02T21:18:40.932Z,24.00
2022-08-02T21:21:10.152Z,23.90
2022-08-02T21:23:49.033Z,23.90
2022-08-02T21:26:28.205Z,23.90
2022-08-02T21:29:00.744Z,23.80
2022-08-02T21:31:32.097Z,23.80
2022-08-02T21:34:21.918Z,23.70
2022-08-02T21:36:53.720Z,23.60
2022-08-02T21:39:21.852Z,23.50
2022-08-02T21:41:50.450Z,23.50
2022-08-02T21:44:19.923Z,23.40
2022-08-02T21:46:50.187Z,23.40
2022-08-02T21:49:20.555Z,23.30
2022-08-02T21:51:50.258Z,23.20
2022-08-02T21:57:07.510Z,23.20
2022-08-02T21:59:45.288Z,23.10
2022-08-02T22:02:14.054Z,23.10
2022-08-02T22:04:47.967Z,23.10
2022-08-02T22:07:17.466Z,23.10
2022-08-02T22:09:52.611Z,23.00
2022-08-02T22:12:21.887Z,23.00
2022-08-02T22:14:56.417Z,22.90
2022-08-02T22:17:51.517Z,22.90
2022-08-02T22:20:18.245Z,22.80
2022-08-02T22:22:50.347Z,22.80
2022-08-02T22:25:31.011Z,22.70
2022-08-02T22:28:38.435Z,22.70
2022-08-02T22:30:54.028Z,22.60
2022-08-02T22:33:42.309Z,22.60
2022-08-02T22:36:16.199Z,22.60
2022-08-02T22:38:44.835Z,22.50
2022-08-02T22:41:13.368Z,22.50
2022-08-02T22:43:41.730Z,22.40
2022-08-02T22:46:09.854Z,22.40
2022-08-02T22:48:43.996Z,22.30
2022-08-02T22:51:12.656Z,22.30
2022-08-02T22:53:42.915Z,22.20
2022-08-02T22:56:11.833Z,22.20
2022-08-02T22:58:34.384Z,32.00
2022-08-02T22:58:58.415Z,28.10
2022-08-02T22:58:58.939Z,29.60
2022-08-02T22:59:11.024Z,23.20
2022-08-02T23:01:28.207Z,22.20
2022-08-02T23:03:56.202Z,22.20
2022-08-02T23:06:24.142Z,22.10
2022-08-02T23:08:53.510Z,22.10
2022-08-02T23:11:23.090Z,22.10
2022-08-02T23:13:51.038Z,22.10
2022-08-02T23:16:39.661Z,22.10
2022-08-02T23:19:25.287Z,22.10
2022-08-02T23:22:01.579Z,22.10
2022-08-02T23:24:33.889Z,22.00
2022-08-02T23:27:02.150Z,22.00
2022-08-02T23:29:30.135Z,21.90
2022-08-02T23:31:59.009Z,21.90
2022-08-02T23:34:27.338Z,21.90
2022-08-02T23:36:55.311Z,21.90
2022-08-02T23:39:23.283Z,21.80
2022-08-02T23:41:55.034Z,21.80
2022-08-02T23:44:24.418Z,21.80
2022-08-02T23:46:53.799Z,21.70
2022-08-02T23:49:22.479Z,21.70
2022-08-02T23:51:51.018Z,21.60
2022-08-02T23:54:19.403Z,21.60
2022-08-02T23:56:47.776Z,21.60
2022-08-02T23:59:17.258Z,21.50
